createdAt,value
2018-07-13T00:00:56.974Z,15.76
2018-07-13T00:03:29.343Z,15.81
2018-07-13T00:06:01.997Z,15.81
2018-07-13T00:08:35.948Z,15.84
2018-07-13T00:11:09.270Z,15.88
2018-07-13T00:14:21.024Z,15.88
2018-07-13T00:16:57.404Z,15.94
2018-07-13T00:19:30.180Z,15.99
2018-07-13T00:22:03.960Z,15.97
2018-07-13T00:24:38.041Z,15.94
2018-07-13T00:27:12.222Z,16.01
2018-07-13T00:29:45.996Z,15.97
2018-07-13T00:32:19.490Z,15.90
2018-07-13T00:34:52.038Z,15.80
2018-07-13T00:37:29.895Z,15.61
2018-07-13T00:40:02.563Z,15.56
2018-07-13T00:42:41.369Z,15.56
2018-07-13T00:45:16.569Z,15.61
2018-07-13T00:47:50.255Z,15.68
2018-07-13T00:50:23.129Z,15.85
2018-07-13T00:52:55.653Z,15.88
2018-07-13T00:55:28.371Z,16.01
2018-07-13T00:58:00.817Z,15.94
2018-07-13T01:00:33.409Z,15.83
2018-07-13T01:03:06.591Z,15.70
2018-07-13T01:05:40.004Z,15.58
2018-07-13T01:08:12.562Z,15.48
2018-07-13T01:10:45.682Z,15.33
2018-07-13T01:13:19.449Z,15.30
2018-07-13T01:15:51.827Z,15.18
2018-07-13T01:18:25.170Z,15.08
2018-07-13T01:20:57.604Z,14.96
2018-07-13T01:23:30.238Z,14.88
2018-07-13T01:26:03.541Z,14.84
2018-07-13T01:28:36.044Z,14.81
2018-07-13T01:31:08.526Z,14.79
2018-07-13T01:33:41.697Z,14.74
2018-07-13T01:36:14.616Z,14.69
2018-07-13T01:38:47.382Z,14.64
2018-07-13T01:41:21.217Z,14.58
2018-07-13T01:43:53.744Z,14.50
2018-07-13T01:46:26.565Z,14.47
2018-07-13T01:48:59.538Z,14.44
2018-07-13T01:51:32.213Z,14.41
2018-07-13T01:54:06.597Z,14.33
2018-07-13T01:56:42.509Z,14.26
2018-07-13T01:59:16.576Z,14.20
2018-07-13T02:01:49.162Z,14.15
2018-07-13T02:04:23.137Z,14.10
2018-07-13T02:06:55.742Z,14.20
2018-07-13T02:09:28.521Z,14.18
2018-07-13T02:12:01.347Z,14.11
2018-07-13T02:14:33.864Z,14.05
2018-07-13T02:17:06.869Z,14.02
2018-07-13T02:19:39.857Z,14.00
2018-07-13T02:22:12.925Z,14.08
2018-07-13T02:24:46.742Z,13.96
2018-07-13T02:27:20.655Z,13.93
2018-07-13T02:29:53.899Z,13.91
2018-07-13T02:32:26.413Z,13.89
2018-07-13T02:34:59.250Z,13.88
2018-07-13T02:37:31.825Z,13.88
2018-07-13T02:40:04.985Z,14.03
2018-07-13T02:42:39.062Z,14.00
2018-07-13T02:45:12.929Z,13.96
2018-07-13T02:47:45.414Z,13.94
2018-07-13T02:50:23.517Z,13.93
2018-07-13T02:52:56.026Z,13.84
2018-07-13T02:55:29.310Z,13.74
2018-07-13T02:58:03.121Z,13.67
2018-07-13T03:00:36.885Z,13.58
2018-07-13T03:03:09.766Z,13.52
2018-07-13T03:05:42.658Z,13.42
2018-07-13T03:08:16.430Z,13.36
2018-07-13T03:10:49.100Z,13.47
2018-07-13T03:13:22.285Z,13.56
2018-07-13T03:15:55.006Z,13.50
2018-07-13T03:18:27.572Z,13.45
2018-07-13T03:21:00.607Z,13.46
2018-07-13T03:23:33.078Z,13.42
2018-07-13T03:26:06.668Z,13.45
2018-07-13T03:28:39.574Z,13.51
2018-07-13T03:31:12.194Z,13.51
2018-07-13T03:33:44.874Z,13.50
2018-07-13T03:36:17.772Z,13.48
2018-07-13T03:38:50.432Z,13.44
2018-07-13T03:41:22.923Z,13.44
2018-07-13T03:43:55.743Z,13.53
2018-07-13T03:46:28.420Z,13.50
2018-07-13T03:49:00.785Z,13.56
2018-07-13T03:51:34.304Z,13.59
2018-07-13T03:54:07.538Z,13.65
2018-07-13T03:56:40.886Z,13.73
2018-07-13T03:59:14.637Z,13.77
2018-07-13T04:01:47.205Z,13.71
2018-07-13T04:04:24.216Z,13.66
2018-07-13T04:06:59.401Z,13.64
2018-07-13T04:09:31.617Z,13.65
2018-07-13T04:12:04.501Z,13.63
2018-07-13T04:14:37.035Z,13.64
2018-07-13T04:17:09.742Z,13.65
2018-07-13T04:19:42.279Z,13.71
2018-07-13T04:22:14.917Z,13.72
2018-07-13T04:24:49.138Z,13.71
2018-07-13T04:27:25.153Z,13.75
2018-07-13T04:29:58.996Z,13.74
2018-07-13T04:32:32.129Z,13.76
2018-07-13T04:35:05.472Z,13.84
2018-07-13T04:37:38.018Z,13.89
2018-07-13T04:40:11.927Z,13.95
2018-07-13T04:42:44.432Z,13.98
2018-07-13T04:45:16.251Z,14.00
2018-07-13T04:47:50.783Z,14.03
2018-07-13T04:50:25.276Z,14.07
2018-07-13T04:52:58.773Z,14.11
2018-07-13T04:55:32.213Z,14.14
2018-07-13T04:58:05.276Z,14.21
2018-07-13T05:00:39.901Z,14.29
2018-07-13T05:03:13.278Z,14.39
2018-07-13T05:05:47.130Z,14.51
2018-07-13T05:08:20.001Z,14.61
2018-07-13T05:10:52.669Z,14.69
2018-07-13T05:13:25.899Z,14.79
2018-07-13T05:15:59.562Z,14.91
2018-07-13T05:18:32.298Z,15.01
2018-07-13T05:21:06.466Z,15.16
2018-07-13T05:23:40.514Z,15.23
2018-07-13T05:26:16.066Z,15.29
2018-07-13T05:28:52.957Z,15.38
2018-07-13T05:31:27.086Z,15.52
2018-07-13T05:34:00.846Z,15.59
2018-07-13T05:36:34.949Z,15.66
2018-07-13T05:39:12.793Z,15.73
2018-07-13T05:41:46.054Z,15.83
2018-07-13T05:44:18.522Z,15.88
2018-07-13T05:46:52.249Z,15.91
2018-07-13T05:49:26.816Z,15.95
2018-07-13T05:52:00.441Z,16.02
2018-07-13T05:54:38.902Z,16.16
2018-07-13T05:57:14.112Z,16.30
2018-07-13T05:59:47.430Z,16.44
2018-07-13T06:02:22.353Z,16.49
2018-07-13T06:04:57.230Z,16.55
2018-07-13T06:07:32.092Z,16.66
2018-07-13T06:10:05.346Z,16.72
2018-07-13T06:12:39.112Z,16.83
2018-07-13T06:15:16.948Z,17.01
2018-07-13T06:17:49.466Z,17.12
2018-07-13T06:20:27.602Z,17.19
2018-07-13T06:23:01.084Z,17.24
2018-07-13T06:25:41.105Z,17.30
2018-07-13T06:28:13.694Z,17.43
2018-07-13T06:30:48.002Z,17.47
2018-07-13T06:33:23.400Z,17.50
2018-07-13T06:36:00.154Z,17.54
2018-07-13T06:38:36.550Z,17.61
2018-07-13T06:41:09.976Z,17.73
2018-07-13T06:43:42.541Z,17.87
2018-07-13T06:46:16.436Z,18.00
2018-07-13T06:48:49.113Z,18.04
2018-07-13T06:51:23.700Z,18.09
2018-07-13T06:53:56.590Z,18.20
2018-07-13T06:56:29.432Z,18.32
2018-07-13T06:59:13.931Z,18.45
2018-07-13T07:01:49.553Z,18.50
2018-07-13T07:04:31.426Z,18.52
2018-07-13T07:07:19.588Z,18.63
2018-07-13T07:09:59.172Z,18.73
2018-07-13T07:13:08.536Z,18.71
2018-07-13T07:15:42.136Z,18.76
2018-07-13T07:18:15.248Z,18.84
2018-07-13T07:20:47.892Z,18.95
2018-07-13T07:23:21.569Z,18.98
2018-07-13T07:25:57.307Z,19.02
2018-07-13T07:28:34.030Z,19.14
2018-07-13T07:31:07.465Z,19.17
2018-07-13T07:33:40.352Z,19.20
2018-07-13T07:36:14.426Z,19.31
2018-07-13T07:38:47.783Z,19.43
2018-07-13T07:41:21.890Z,19.65
2018-07-13T07:43:54.967Z,19.77
2018-07-13T07:46:29.312Z,19.81
2018-07-13T07:49:03.066Z,19.84
2018-07-13T07:51:36.137Z,20.14
2018-07-13T07:54:08.646Z,20.68
2018-07-13T07:56:41.636Z,21.18
2018-07-13T07:59:14.209Z,22.44
2018-07-13T08:01:46.794Z,23.65
2018-07-13T08:04:19.604Z,24.32
2018-07-13T08:06:52.793Z,24.51
2018-07-13T08:09:25.125Z,24.79
2018-07-13T08:12:00.242Z,25.27
2018-07-13T08:14:33.643Z,25.52
2018-07-13T08:17:13.009Z,25.75
2018-07-13T08:19:56.643Z,26.10
2018-07-13T08:22:56.190Z,26.17
2018-07-13T08:25:34.200Z,26.31
2018-07-13T08:28:13.744Z,25.80
2018-07-13T08:30:57.419Z,25.90
2018-07-13T08:33:29.992Z,26.07
2018-07-13T08:36:05.031Z,26.22
2018-07-13T08:38:44.752Z,26.05
2018-07-13T08:41:17.588Z,25.96
2018-07-13T08:43:52.551Z,26.19
2018-07-13T08:46:25.031Z,26.19
2018-07-13T08:49:01.300Z,26.26
2018-07-13T08:51:35.476Z,26.23
2018-07-13T08:54:13.884Z,25.71
2018-07-13T08:56:50.080Z,26.54
2018-07-13T08:59:24.772Z,27.04
2018-07-13T09:01:58.424Z,27.85
2018-07-13T09:04:33.162Z,28.20
2018-07-13T09:07:07.729Z,27.80
2018-07-13T09:09:43.057Z,27.15
2018-07-13T09:12:19.124Z,27.59
2018-07-13T09:14:53.054Z,27.75
2018-07-13T09:17:26.573Z,27.27
2018-07-13T09:20:02.461Z,27.61
2018-07-13T09:22:35.607Z,27.57
2018-07-13T09:25:10.309Z,27.41
2018-07-13T09:27:52.967Z,27.40
2018-07-13T09:30:26.977Z,26.59
2018-07-13T09:32:59.580Z,26.57
2018-07-13T09:35:33.978Z,26.92
2018-07-13T09:38:06.699Z,27.20
2018-07-13T09:40:42.140Z,27.65
2018-07-13T09:43:15.671Z,26.75
2018-07-13T09:45:50.130Z,27.40
2018-07-13T09:48:24.611Z,27.69
2018-07-13T09:50:58.820Z,27.29
2018-07-13T09:53:32.204Z,27.04
2018-07-13T09:56:06.679Z,26.59
2018-07-13T09:58:41.807Z,27.00
2018-07-13T10:01:19.816Z,27.13
2018-07-13T10:03:54.470Z,27.23
2018-07-13T10:06:32.521Z,26.86
2018-07-13T10:09:06.486Z,27.42
2018-07-13T10:11:46.126Z,27.97
2018-07-13T10:14:24.145Z,28.02
2018-07-13T10:16:57.108Z,27.83
2018-07-13T10:19:38.607Z,28.10
2018-07-13T10:22:24.438Z,28.56
2018-07-13T10:25:03.666Z,28.07
2018-07-13T10:27:41.180Z,28.08
2018-07-13T10:30:22.353Z,28.36
2018-07-13T10:32:59.315Z,28.72
2018-07-13T10:35:34.528Z,28.64
2018-07-13T10:38:09.496Z,28.42
2018-07-13T10:40:45.072Z,28.32
2018-07-13T10:43:20.471Z,28.40
2018-07-13T10:45:56.043Z,28.56
2018-07-13T10:48:29.645Z,28.96
2018-07-13T10:51:03.889Z,29.02
2018-07-13T10:53:39.155Z,29.11
2018-07-13T10:56:16.036Z,29.21
2018-07-13T10:58:50.301Z,29.18
2018-07-13T11:01:24.970Z,28.71
2018-07-13T11:03:57.733Z,28.96
2018-07-13T11:06:33.023Z,29.28
2018-07-13T11:09:09.432Z,29.49
2018-07-13T11:11:42.180Z,29.23
2018-07-13T11:14:15.137Z,29.22
2018-07-13T11:16:48.681Z,28.95
2018-07-13T11:19:21.481Z,28.77
2018-07-13T11:22:01.923Z,28.73
2018-07-13T11:24:37.828Z,29.14
2018-07-13T11:27:15.645Z,29.62
2018-07-13T11:29:50.852Z,29.26
2018-07-13T11:32:24.964Z,29.01
2018-07-13T11:34:57.553Z,29.32
2018-07-13T11:37:31.009Z,29.77
2018-07-13T11:40:06.545Z,29.91
2018-07-13T11:42:42.644Z,30.00
2018-07-13T11:45:19.511Z,30.21
2018-07-13T11:47:53.158Z,30.38
2018-07-13T11:50:25.943Z,29.90
2018-07-13T11:53:00.578Z,29.73
2018-07-13T11:55:33.156Z,29.62
2018-07-13T11:58:07.669Z,29.40
2018-07-13T12:00:42.805Z,29.60
2018-07-13T12:03:17.216Z,29.56
2018-07-13T12:05:49.810Z,29.50
2018-07-13T12:08:25.725Z,29.64
2018-07-13T12:11:02.728Z,29.63
2018-07-13T12:13:39.216Z,29.73
2018-07-13T12:16:13.219Z,30.01
2018-07-13T12:18:47.944Z,30.14
2018-07-13T12:21:21.833Z,29.88
2018-07-13T12:24:04.602Z,29.65
2018-07-13T12:27:04.850Z,29.93
2018-07-13T12:30:09.749Z,29.97
2018-07-13T12:32:52.888Z,30.42
2018-07-13T12:35:35.012Z,30.22
2018-07-13T12:38:19.151Z,30.11
2018-07-13T12:41:15.039Z,30.43
2018-07-13T12:43:53.537Z,31.17
2018-07-13T12:46:30.868Z,31.28
2018-07-13T12:49:08.472Z,30.60
2018-07-13T12:51:43.752Z,30.17
2018-07-13T12:54:19.250Z,29.87
2018-07-13T12:56:53.623Z,29.25
2018-07-13T12:59:29.383Z,29.59
2018-07-13T13:02:05.302Z,30.13
2018-07-13T13:04:37.881Z,30.30
2018-07-13T13:07:11.712Z,30.34
2018-07-13T13:09:46.536Z,30.68
2018-07-13T13:12:22.692Z,31.28
2018-07-13T13:14:57.554Z,31.54
2018-07-13T13:17:38.488Z,30.80
2018-07-13T13:20:18.684Z,30.57
2018-07-13T13:22:59.080Z,30.63
2018-07-13T13:25:36.806Z,30.47
2018-07-13T13:28:15.240Z,31.07
2018-07-13T13:30:51.883Z,31.08
2018-07-13T13:33:30.648Z,31.18
2018-07-13T13:36:05.134Z,31.41
2018-07-13T13:38:42.782Z,31.73
2018-07-13T13:41:18.121Z,31.79
2018-07-13T13:44:03.466Z,32.16
2018-07-13T13:46:39.259Z,31.79
2018-07-13T13:49:15.173Z,31.45
2018-07-13T13:51:49.260Z,31.31
2018-07-13T13:54:27.368Z,31.39
2018-07-13T13:57:03.959Z,31.59
2018-07-13T13:59:37.469Z,31.53
2018-07-13T14:02:11.870Z,31.72
2018-07-13T14:04:46.484Z,31.96
2018-07-13T14:07:21.102Z,32.44
2018-07-13T14:09:54.639Z,32.68
2018-07-13T14:12:30.634Z,32.42
2018-07-13T14:15:05.170Z,32.29
2018-07-13T14:17:38.301Z,32.22
2018-07-13T14:20:15.589Z,32.57
2018-07-13T14:22:56.139Z,32.38
2018-07-13T14:25:31.761Z,32.33
2018-07-13T14:28:06.041Z,32.48
2018-07-13T14:30:38.647Z,32.84
2018-07-13T14:33:15.708Z,33.17
2018-07-13T14:35:50.624Z,33.62
2018-07-13T14:38:24.529Z,33.38
2018-07-13T14:40:59.859Z,32.93
2018-07-13T14:46:06.632Z,32.77
2018-07-13T14:48:46.403Z,32.58
2018-07-13T14:51:20.567Z,32.46
2018-07-13T14:53:56.707Z,31.99
2018-07-13T14:56:32.691Z,32.01
2018-07-13T14:59:07.805Z,32.22
2018-07-13T15:01:41.645Z,32.13
2018-07-13T15:04:18.014Z,32.02
2018-07-13T15:07:03.070Z,31.86
2018-07-13T15:09:35.914Z,31.70
2018-07-13T15:12:09.832Z,31.50
2018-07-13T15:14:44.493Z,31.60
2018-07-13T15:17:20.417Z,32.01
2018-07-13T15:19:53.897Z,32.63
2018-07-13T15:22:39.529Z,33.04
2018-07-13T15:25:19.779Z,33.35
2018-07-13T15:27:52.620Z,33.57
2018-07-13T15:30:28.324Z,33.53
2018-07-13T15:33:09.130Z,33.32
2018-07-13T15:35:44.390Z,33.14
2018-07-13T15:38:23.038Z,32.67
2018-07-13T15:40:58.165Z,32.29
2018-07-13T15:43:31.091Z,32.42
2018-07-13T15:46:06.593Z,32.90
2018-07-13T15:48:40.214Z,33.40
2018-07-13T15:51:13.460Z,34.05
2018-07-13T15:53:48.233Z,34.36
2018-07-13T15:56:21.788Z,34.14
2018-07-13T15:58:55.426Z,34.05
2018-07-13T16:01:29.359Z,33.88
2018-07-13T16:04:01.943Z,33.06
2018-07-13T16:06:35.563Z,32.83
2018-07-13T16:09:08.558Z,33.01
2018-07-13T16:11:45.823Z,32.98
2018-07-13T16:14:18.525Z,33.01
2018-07-13T16:16:54.231Z,32.85
2018-07-13T16:19:28.831Z,32.71
2018-07-13T16:22:04.321Z,32.48
2018-07-13T16:24:38.347Z,32.24
2018-07-13T16:27:11.193Z,32.09
2018-07-13T16:29:47.680Z,32.26
2018-07-13T16:32:20.585Z,32.52
2018-07-13T16:34:53.757Z,32.02
2018-07-13T16:37:27.849Z,31.72
2018-07-13T16:40:02.532Z,31.80
2018-07-13T16:42:35.062Z,32.12
2018-07-13T16:45:07.074Z,32.53
2018-07-13T16:47:40.970Z,32.64
2018-07-13T16:50:14.324Z,32.73
2018-07-13T16:52:48.248Z,32.93
2018-07-13T16:55:30.837Z,33.33
2018-07-13T16:58:07.727Z,33.95
2018-07-13T17:00:41.253Z,34.42
2018-07-13T17:03:15.485Z,34.75
2018-07-13T17:05:47.990Z,34.77
2018-07-13T17:08:37.792Z,34.76
2018-07-13T17:11:15.211Z,34.07
2018-07-13T17:13:51.169Z,33.56
2018-07-13T17:16:28.210Z,33.48
2018-07-13T17:19:01.063Z,33.20
2018-07-13T17:21:35.524Z,33.37
2018-07-13T17:24:09.011Z,33.44
2018-07-13T17:26:44.753Z,33.19
2018-07-13T17:29:18.878Z,32.72
2018-07-13T17:31:54.556Z,32.39
2018-07-13T17:34:29.308Z,31.87
2018-07-13T17:37:03.430Z,31.47
2018-07-13T17:39:37.253Z,31.07
2018-07-13T17:42:09.893Z,30.65
2018-07-13T17:44:46.502Z,30.25
2018-07-13T17:47:20.107Z,30.18
2018-07-13T17:49:53.498Z,30.24
2018-07-13T17:52:28.161Z,30.49
2018-07-13T17:55:01.025Z,30.18
2018-07-13T17:57:36.312Z,29.85
2018-07-13T18:00:14.086Z,29.69
2018-07-13T18:02:50.066Z,29.52
2018-07-13T18:05:25.778Z,29.33
2018-07-13T18:08:00.538Z,29.41
2018-07-13T18:10:36.798Z,29.33
2018-07-13T18:13:10.980Z,29.21
2018-07-13T18:15:45.851Z,29.02
2018-07-13T18:18:19.660Z,28.78
2018-07-13T18:20:54.719Z,28.47
2018-07-13T18:23:29.112Z,28.28
2018-07-13T18:26:04.604Z,28.03
2018-07-13T18:28:50.781Z,27.79
2018-07-13T18:31:31.717Z,27.53
2018-07-13T18:34:05.630Z,27.33
2018-07-13T18:36:39.122Z,27.14
2018-07-13T18:39:15.692Z,26.95
2018-07-13T18:41:50.034Z,26.74
2018-07-13T18:44:22.856Z,26.56
2018-07-13T18:47:02.313Z,26.38
2018-07-13T18:49:36.356Z,26.24
2018-07-13T18:52:11.134Z,26.05
2018-07-13T18:54:44.976Z,25.89
2018-07-13T18:57:20.290Z,25.70
2018-07-13T18:59:55.146Z,25.50
2018-07-13T19:02:34.626Z,25.29
2018-07-13T19:05:11.467Z,25.13
2018-07-13T19:07:52.265Z,24.92
2018-07-13T19:10:28.932Z,24.72
2018-07-13T19:13:02.584Z,24.55
2018-07-13T19:15:37.300Z,24.43
2018-07-13T19:18:12.514Z,24.30
2018-07-13T19:20:51.511Z,24.15
2018-07-13T19:23:26.229Z,23.95
2018-07-13T19:26:02.560Z,23.75
2018-07-13T19:28:38.529Z,23.53
2018-07-13T19:31:14.996Z,23.31
2018-07-13T19:33:52.050Z,23.08
2018-07-13T19:36:28.440Z,22.89
2018-07-13T19:39:04.310Z,22.70
2018-07-13T19:41:46.557Z,22.51
2018-07-13T19:44:27.952Z,22.31
2018-07-13T19:47:07.658Z,22.12
2018-07-13T19:49:47.537Z,21.93
2018-07-13T19:52:27.363Z,21.78
2018-07-13T19:55:07.822Z,21.67
2018-07-13T19:57:45.578Z,21.52
2018-07-13T20:00:25.466Z,21.31
2018-07-13T20:03:04.763Z,21.16
2018-07-13T20:05:48.122Z,21.02
2018-07-13T20:08:30.753Z,20.83
2018-07-13T20:11:08.506Z,20.61
2018-07-13T20:13:44.247Z,20.42
2018-07-13T20:16:25.958Z,20.26
2018-07-13T20:19:01.593Z,20.11
2018-07-13T20:21:41.438Z,19.95
2018-07-13T20:24:17.025Z,19.83
2018-07-13T20:26:52.137Z,19.68
2018-07-13T20:29:29.766Z,19.52
2018-07-13T20:32:04.921Z,19.44
2018-07-13T20:34:39.126Z,19.27
2018-07-13T20:37:15.879Z,19.11
2018-07-13T20:39:53.377Z,18.94
2018-07-13T20:42:27.745Z,18.79
2018-07-13T20:45:09.586Z,18.77
2018-07-13T20:47:46.045Z,18.79
2018-07-13T20:50:22.426Z,18.67
2018-07-13T20:53:06.747Z,18.54
2018-07-13T20:55:46.984Z,18.38
2018-07-13T20:58:23.578Z,18.24
2018-07-13T21:00:59.516Z,18.11
2018-07-13T21:03:36.504Z,18.02
2018-07-13T21:06:12.477Z,17.99
2018-07-13T21:08:47.442Z,17.93
2018-07-13T21:11:33.663Z,17.90
2018-07-13T21:14:17.173Z,17.97
2018-07-13T21:16:53.168Z,17.90
2018-07-13T21:19:27.129Z,17.92
2018-07-13T21:22:00.980Z,17.86
2018-07-13T21:24:34.484Z,17.68
2018-07-13T21:27:07.838Z,17.48
2018-07-13T21:29:43.004Z,17.39
2018-07-13T21:32:15.554Z,17.36
2018-07-13T21:34:49.321Z,17.26
2018-07-13T21:37:22.597Z,17.17
2018-07-13T21:39:58.472Z,17.09
2018-07-13T21:42:33.531Z,17.05
2018-07-13T21:45:08.488Z,17.04
2018-07-13T21:47:44.794Z,17.02
2018-07-13T21:50:18.643Z,16.95
2018-07-13T21:52:53.752Z,16.96
2018-07-13T21:55:35.983Z,17.00
2018-07-13T21:58:17.746Z,16.92
2018-07-13T22:00:52.308Z,16.78
2018-07-13T22:03:25.017Z,16.75
2018-07-13T22:05:59.029Z,16.73
2018-07-13T22:08:39.208Z,16.61
2018-07-13T22:11:11.796Z,16.65
2018-07-13T22:13:44.755Z,16.57
2018-07-13T22:16:17.307Z,16.59
2018-07-13T22:18:52.765Z,16.49
2018-07-13T22:21:27.470Z,16.38
2018-07-13T22:24:01.938Z,16.26
2018-07-13T22:26:35.616Z,16.18
2018-07-13T22:29:09.421Z,16.26
2018-07-13T22:31:45.453Z,16.36
2018-07-13T22:34:19.858Z,16.47
2018-07-13T22:36:56.880Z,16.41
2018-07-13T22:39:29.353Z,16.39
2018-07-13T22:42:02.373Z,16.41
2018-07-13T22:44:34.933Z,16.57
2018-07-13T22:47:09.825Z,16.63
2018-07-13T22:49:44.275Z,16.69
2018-07-13T22:52:25.896Z,16.66
2018-07-13T22:55:00.257Z,16.53
2018-07-13T22:57:32.764Z,16.63
2018-07-13T23:00:10.728Z,16.56
2018-07-13T23:02:46.077Z,16.50
2018-07-13T23:05:22.097Z,16.36
2018-07-13T23:07:58.070Z,16.29
2018-07-13T23:10:31.808Z,16.11
2018-07-13T23:13:04.736Z,15.96
2018-07-13T23:15:37.549Z,15.83
2018-07-13T23:18:11.556Z,15.69
2018-07-13T23:20:43.967Z,15.56
2018-07-13T23:23:17.791Z,15.45
2018-07-13T23:25:51.676Z,15.46
2018-07-13T23:28:26.661Z,15.38
2018-07-13T23:31:01.577Z,15.32
2018-07-13T23:33:34.079Z,15.28
2018-07-13T23:36:07.550Z,15.20
2018-07-13T23:38:40.399Z,15.16
2018-07-13T23:41:13.034Z,15.11
2018-07-13T23:43:48.589Z,15.05
2018-07-13T23:46:22.104Z,15.00
2018-07-13T23:48:55.414Z,15.01
2018-07-13T23:51:28.052Z,15.05
2018-07-13T23:54:04.936Z,15.11
2018-07-13T23:56:40.499Z,15.17
2018-07-13T23:59:13.013Z,15.22
